Time;durP1;ratioP1;P1;durP2;ratioP2;P2;SDS_P1;SDS_P2;PMS_P1;PMS_P2;Temp;Humidity;BMP_temperature;BMP_pressure;BME280_temperature;BME280_humidity;BME280_pressure;Samples;Min_cycle;Max_cycle;Signal;HPM_P1;HPM_P2
2021/12/05 00:23:25;;;;;;;24.67;8.00;;;;;;;;;;5088553;28;20115;-65
2021/12/05 00:25:54;;;;;;;21.63;8.88;;;;;;;;;;5087324;28;20113;-64
2021/12/05 00:44:47;;;;;;;32.30;8.48;;;;;;;;;;5088466;28;20109;-65
2021/12/05 00:47:26;;;;;;;25.15;8.98;;;;;;;;;;5088151;28;20028;-65
2021/12/05 00:58:25;;;;;;;22.60;9.48;;;;;;;;;;5070358;28;20037;-67
2021/12/05 01:16:07;;;;;;;21.92;8.70;;;;;;;;;;5070509;28;20033;-65
2021/12/05 01:18:34;;;;;;;33.95;9.68;;;;;;;;;;5069217;28;20032;-65
2021/12/05 01:21:05;;;;;;;23.63;8.10;;;;;;;;;;5070960;28;20060;-67
2021/12/05 01:26:50;;;;;;;21.75;8.07;;;;;;;;;;5062313;28;20024;-65
2021/12/05 01:32:14;;;;;;;18.58;6.15;;;;;;;;;;5074219;28;20025;-65
2021/12/05 01:54:04;;;;;;;24.73;6.63;;;;;;;;;;5074222;28;20116;-66
2021/12/05 01:56:39;;;;;;;21.83;8.38;;;;;;;;;;5072750;28;20029;-66
2021/12/05 01:59:24;;;;;;;24.15;7.60;;;;;;;;;;5073792;28;20050;-66
2021/12/05 02:02:40;;;;;;;23.30;6.65;;;;;;;;;;5072525;28;20021;-66
2021/12/05 02:15:18;;;;;;;23.17;8.88;;;;;;;;;;5073943;28;20078;-65
2021/12/05 02:29:46;;;;;;;20.52;6.57;;;;;;;;;;5073697;28;20101;-66
2021/12/05 02:43:13;;;;;;;20.02;6.47;;;;;;;;;;5072832;28;20033;-66
2021/12/05 02:45:41;;;;;;;20.45;5.90;;;;;;;;;;5072986;28;20045;-66
2021/12/05 02:48:08;;;;;;;19.42;5.80;;;;;;;;;;5071493;28;20027;-67
2021/12/05 02:50:34;;;;;;;20.42;5.72;;;;;;;;;;5073179;28;20044;-66
2021/12/05 02:53:16;;;;;;;13.70;4.85;;;;;;;;;;5072322;28;20024;-65
2021/12/05 02:55:44;;;;;;;17.67;6.68;;;;;;;;;;5072964;28;20021;-66
2021/12/05 03:03:28;;;;;;;20.05;5.93;;;;;;;;;;5072190;28;20078;-66
2021/12/05 03:06:03;;;;;;;16.83;4.97;;;;;;;;;;5072329;28;20099;-65
2021/12/05 03:08:29;;;;;;;17.90;5.53;;;;;;;;;;5072651;28;20028;-66
2021/12/05 03:10:57;;;;;;;16.95;6.13;;;;;;;;;;5072328;28;20025;-68
2021/12/05 03:13:24;;;;;;;19.20;5.15;;;;;;;;;;5072124;28;20396;-67
2021/12/05 03:15:50;;;;;;;21.92;6.07;;;;;;;;;;5072105;28;20534;-66
2021/12/05 03:18:16;;;;;;;16.63;6.78;;;;;;;;;;5071862;28;20032;-67
2021/12/05 03:20:42;;;;;;;18.45;6.28;;;;;;;;;;5072145;28;20028;-67
2021/12/05 03:23:09;;;;;;;22.77;5.57;;;;;;;;;;5071941;28;20028;-66
2021/12/05 03:25:35;;;;;;;23.88;6.60;;;;;;;;;;5072136;28;20517;-66
2021/12/05 03:28:01;;;;;;;18.27;5.50;;;;;;;;;;5071956;28;20024;-67
2021/12/05 03:30:28;;;;;;;19.25;6.43;;;;;;;;;;5070540;28;20559;-67
2021/12/05 03:32:54;;;;;;;22.40;5.72;;;;;;;;;;5071716;28;20388;-67
2021/12/05 03:35:29;;;;;;;21.55;6.82;;;;;;;;;;5071912;28;20089;-66
2021/12/05 03:37:55;;;;;;;20.20;6.03;;;;;;;;;;5070559;28;20507;-67
2021/12/05 03:40:22;;;;;;;20.83;5.22;;;;;;;;;;5071869;28;20056;-67
2021/12/05 03:42:49;;;;;;;19.17;6.20;;;;;;;;;;5071369;28;20033;-66
2021/12/05 03:45:17;;;;;;;16.75;5.05;;;;;;;;;;5069484;28;20021;-66
2021/12/05 03:47:43;;;;;;;22.40;6.15;;;;;;;;;;5071762;28;20553;-66
2021/12/05 03:50:10;;;;;;;20.58;7.28;;;;;;;;;;5070361;28;20032;-66
2021/12/05 03:52:37;;;;;;;21.35;6.18;;;;;;;;;;5070225;28;20077;-66
2021/12/05 03:55:04;;;;;;;27.13;7.38;;;;;;;;;;5071652;28;20024;-66
2021/12/05 03:57:30;;;;;;;16.60;5.82;;;;;;;;;;5071311;28;20027;-66
2021/12/05 03:59:56;;;;;;;17.30;5.55;;;;;;;;;;5071299;28;20021;-67
2021/12/05 04:02:22;;;;;;;21.88;6.05;;;;;;;;;;5069951;28;20455;-66
2021/12/05 04:04:50;;;;;;;18.80;5.13;;;;;;;;;;5070034;28;20036;-65
2021/12/05 04:07:16;;;;;;;15.95;5.00;;;;;;;;;;5071330;28;20016;-66
2021/12/05 04:09:42;;;;;;;19.67;5.72;;;;;;;;;;5070073;28;20024;-66
2021/12/05 04:12:09;;;;;;;17.67;5.97;;;;;;;;;;5070904;28;20016;-66
2021/12/05 04:14:40;;;;;;;23.65;6.80;;;;;;;;;;5069992;28;20107;-66
2021/12/05 04:17:07;;;;;;;19.30;5.75;;;;;;;;;;5069808;28;20043;-67
2021/12/05 04:19:33;;;;;;;18.27;5.97;;;;;;;;;;5071756;28;20028;-66
2021/12/05 04:21:59;;;;;;;22.33;6.63;;;;;;;;;;5069519;28;20035;-65
2021/12/05 04:24:25;;;;;;;20.33;6.25;;;;;;;;;;5069642;28;20031;-65
2021/12/05 04:26:52;;;;;;;19.50;5.57;;;;;;;;;;5069989;28;20055;-65
2021/12/05 04:29:18;;;;;;;19.13;5.53;;;;;;;;;;5071014;28;20081;-65
2021/12/05 04:31:44;;;;;;;15.82;5.13;;;;;;;;;;5070747;28;20100;-65
2021/12/05 04:34:12;;;;;;;20.63;5.43;;;;;;;;;;5069790;28;20036;-65
2021/12/05 04:36:38;;;;;;;22.33;6.28;;;;;;;;;;5071023;28;20028;-65
2021/12/05 04:39:05;;;;;;;18.83;5.65;;;;;;;;;;5069889;28;20119;-66
2021/12/05 04:41:31;;;;;;;20.63;6.18;;;;;;;;;;5071301;28;20031;-66
2021/12/05 04:43:59;;;;;;;18.02;5.25;;;;;;;;;;5069901;28;20029;-65
2021/12/05 04:46:25;;;;;;;;;;;;;;;;;;5071600;28;20040;-65
2021/12/05 04:48:53;;;;;;;19.98;7.03;;;;;;;;;;5071265;28;20356;-65
2021/12/05 04:51:20;;;;;;;21.30;6.53;;;;;;;;;;5071177;28;20020;-66
2021/12/05 04:53:46;;;;;;;16.80;5.57;;;;;;;;;;5070344;28;20123;-66
2021/12/05 04:56:12;;;;;;;15.48;4.93;;;;;;;;;;5073825;28;20048;-66
2021/12/05 04:58:38;;;;;;;16.17;5.40;;;;;;;;;;5075502;28;20089;-66
2021/12/05 05:01:05;;;;;;;18.20;5.25;;;;;;;;;;5075589;28;20029;-66
2021/12/05 05:03:32;;;;;;;19.58;5.53;;;;;;;;;;5074860;28;20096;-66
2021/12/05 05:06:06;;;;;;;17.05;4.60;;;;;;;;;;5073528;28;20081;-66
2021/12/05 05:08:33;;;;;;;19.50;5.72;;;;;;;;;;5074821;28;20020;-67
2021/12/05 05:11:00;;;;;;;21.45;5.78;;;;;;;;;;5073468;28;20434;-66
2021/12/05 05:13:26;;;;;;;18.80;5.30;;;;;;;;;;5073104;28;20032;-66
2021/12/05 05:15:52;;;;;;;16.27;5.53;;;;;;;;;;5074665;28;20486;-66
2021/12/05 05:18:19;;;;;;;19.27;5.75;;;;;;;;;;5111838;22;20056;-67
2021/12/05 05:43:02;;;;;;;18.77;5.45;;;;;;;;;;5075339;28;20036;-68
2021/12/05 05:50:12;;;;;;;14.95;4.80;;;;;;;;;;5075313;28;20484;-69
2021/12/05 05:52:38;;;;;;;16.83;5.15;;;;;;;;;;5073903;28;20127;-70
2021/12/05 05:55:05;;;;;;;15.95;5.57;;;;;;;;;;5075481;28;20017;-68
2021/12/05 05:57:56;;;;;;;17.30;5.22;;;;;;;;;;5074911;28;20025;-68
2021/12/05 06:00:33;;;;;;;16.88;5.38;;;;;;;;;;5073812;28;20473;-68
2021/12/05 06:03:21;;;;;;;14.48;4.93;;;;;;;;;;5074758;28;20017;-68
2021/12/05 06:05:48;;;;;;;18.42;5.03;;;;;;;;;;5074980;28;20067;-67
2021/12/05 06:08:14;;;;;;;17.55;5.38;;;;;;;;;;5074020;28;20027;-68
2021/12/05 06:10:41;;;;;;;23.38;5.80;;;;;;;;;;5074631;28;20380;-69
2021/12/05 06:13:07;;;;;;;18.10;5.55;;;;;;;;;;5073339;28;20021;-68
2021/12/05 06:15:33;;;;;;;16.25;6.35;;;;;;;;;;5073262;28;20093;-69
2021/12/05 06:17:59;;;;;;;19.83;6.35;;;;;;;;;;5073378;28;20033;-68
2021/12/05 06:20:28;;;;;;;23.00;6.70;;;;;;;;;;5073382;28;20016;-68
2021/12/05 06:22:55;;;;;;;20.13;6.40;;;;;;;;;;5074322;28;20389;-67
2021/12/05 06:25:23;;;;;;;20.08;6.72;;;;;;;;;;5073301;28;20025;-68
2021/12/05 06:27:54;;;;;;;18.30;6.28;;;;;;;;;;5074624;28;20096;-68
2021/12/05 06:46:33;;;;;;;21.75;6.20;;;;;;;;;;5074243;28;20112;-69
2021/12/05 06:48:59;;;;;;;19.27;6.72;;;;;;;;;;5073014;28;20020;-69
2021/12/05 06:51:27;;;;;;;17.17;6.40;;;;;;;;;;5074046;28;20490;-69
2021/12/05 06:53:53;;;;;;;17.10;6.43;;;;;;;;;;5073836;28;20028;-68
2021/12/05 06:56:19;;;;;;;21.33;6.63;;;;;;;;;;5072654;28;20059;-70
2021/12/05 06:58:46;;;;;;;17.45;6.30;;;;;;;;;;5072566;28;20029;-69
2021/12/05 07:01:12;;;;;;;21.42;7.03;;;;;;;;;;5073910;28;20492;-68
2021/12/05 07:03:42;;;;;;;24.52;7.65;;;;;;;;;;5072078;28;20037;-68
2021/12/05 07:06:19;;;;;;;19.58;7.57;;;;;;;;;;5062443;28;20023;-68
2021/12/05 07:08:45;;;;;;;21.80;6.65;;;;;;;;;;5064199;28;20032;-69
2021/12/05 07:11:22;;;;;;;18.92;7.22;;;;;;;;;;5052229;28;20384;-69
2021/12/05 07:19:05;;;;;;;17.27;6.85;;;;;;;;;;5073523;28;20036;-69
2021/12/05 07:21:45;;;;;;;19.40;6.65;;;;;;;;;;5073430;28;20021;-68
2021/12/05 07:24:24;;;;;;;16.45;6.30;;;;;;;;;;5072249;28;20115;-69
2021/12/05 07:40:25;;;;;;;19.48;7.82;;;;;;;;;;5058572;28;20170;-68
2021/12/05 07:42:52;;;;;;;21.85;8.25;;;;;;;;;;5053165;28;20443;-68
2021/12/05 07:45:22;;;;;;;16.75;6.45;;;;;;;;;;5051779;28;20025;-68
2021/12/05 07:47:49;;;;;;;21.30;6.65;;;;;;;;;;5051885;28;20028;-68
2021/12/05 07:50:16;;;;;;;19.92;6.40;;;;;;;;;;5053025;28;20021;-69
2021/12/05 07:52:46;;;;;;;17.90;6.68;;;;;;;;;;5051508;28;20021;-69
2021/12/05 07:55:32;;;;;;;21.13;7.00;;;;;;;;;;5051693;28;20025;-69
2021/12/05 07:58:27;;;;;;;18.00;6.07;;;;;;;;;;5051509;28;20108;-69
2021/12/05 08:01:15;;;;;;;19.35;7.50;;;;;;;;;;5052655;28;20025;-68
2021/12/05 08:14:46;;;;;;;15.90;6.00;;;;;;;;;;5052498;28;20032;-68
2021/12/05 08:17:19;;;;;;;18.20;6.70;;;;;;;;;;5051237;28;20044;-68
2021/12/05 08:19:45;;;;;;;22.67;8.15;;;;;;;;;;5051140;28;20048;-68
2021/12/05 08:22:12;;;;;;;17.40;6.13;;;;;;;;;;5050706;28;20025;-68
2021/12/05 08:24:41;;;;;;;17.42;6.28;;;;;;;;;;5052121;28;20025;-69
2021/12/05 08:27:08;;;;;;;15.73;5.90;;;;;;;;;;5052169;28;20044;-69
2021/12/05 08:29:45;;;;;;;19.55;6.45;;;;;;;;;;5050763;28;20045;-69
2021/12/05 08:34:54;;;;;;;15.20;6.03;;;;;;;;;;5052281;28;20095;-68
2021/12/05 08:43:04;;;;;;;17.08;6.43;;;;;;;;;;5071913;28;20028;-70
2021/12/05 10:15:40;;;;;;;13.98;6.35;;;;;;;;;;5054602;28;20025;-68
2021/12/05 10:38:11;;;;;;;16.75;6.43;;;;;;;;;;5054289;28;20029;-66
2021/12/05 10:40:43;;;;;;;15.45;6.03;;;;;;;;;;5053188;28;20025;-66
2021/12/05 10:43:12;;;;;;;15.75;6.50;;;;;;;;;;5053530;28;20025;-67
2021/12/05 10:45:41;;;;;;;16.23;6.10;;;;;;;;;;5053985;28;20370;-66
2021/12/05 10:48:10;;;;;;;17.27;6.90;;;;;;;;;;5053707;28;20017;-66
2021/12/05 10:50:47;;;;;;;17.60;6.35;;;;;;;;;;5052482;28;20052;-66
2021/12/05 10:53:18;;;;;;;16.00;6.07;;;;;;;;;;5052839;28;20396;-67
2021/12/05 10:55:44;;;;;;;17.55;6.70;;;;;;;;;;5054902;28;20036;-66
2021/12/05 10:58:10;;;;;;;15.07;6.93;;;;;;;;;;5053263;28;20055;-68
2021/12/05 11:00:36;;;;;;;16.15;6.20;;;;;;;;;;5053035;28;20362;-67
2021/12/05 11:03:15;;;;;;;14.38;6.25;;;;;;;;;;5052060;28;20036;-68
2021/12/05 11:05:45;;;;;;;14.80;6.05;;;;;;;;;;5054536;28;20316;-67
2021/12/05 11:08:33;;;;;;;14.52;6.20;;;;;;;;;;5073034;28;20027;-69
2021/12/05 11:11:10;;;;;;;16.00;6.10;;;;;;;;;;5073215;28;20029;-67
2021/12/05 11:13:37;;;;;;;16.58;6.20;;;;;;;;;;5071693;28;20062;-67
2021/12/05 11:16:03;;;;;;;17.52;6.43;;;;;;;;;;5072989;28;20046;-65
2021/12/05 11:18:42;;;;;;;15.18;6.38;;;;;;;;;;5099383;22;20055;-69
2021/12/05 11:21:31;;;;;;;15.45;6.80;;;;;;;;;;5090723;28;20471;-70
2021/12/05 11:23:57;;;;;;;;;;;;;;;;;;5091063;28;20039;-69
2021/12/05 11:26:23;;;;;;;16.08;6.35;;;;;;;;;;5090914;28;19967;-69
2021/12/05 11:28:55;;;;;;;14.88;6.40;;;;;;;;;;5090790;28;20031;-69
2021/12/05 11:31:25;;;;;;;13.30;6.25;;;;;;;;;;5092007;28;20020;-69
2021/12/05 11:33:54;;;;;;;17.45;6.60;;;;;;;;;;5089865;28;20035;-69
2021/12/05 11:36:24;;;;;;;16.80;7.18;;;;;;;;;;5090449;28;20020;-67
2021/12/05 11:38:50;;;;;;;14.73;6.10;;;;;;;;;;5090349;28;20020;-69
2021/12/05 11:41:20;;;;;;;15.73;6.60;;;;;;;;;;5092053;28;20364;-69
2021/12/05 11:43:48;;;;;;;17.17;6.82;;;;;;;;;;5091764;28;20047;-68
2021/12/05 11:46:34;;;;;;;16.57;7.00;;;;;;;;;;5090601;28;20027;-69
2021/12/05 11:49:16;;;;;;;15.63;6.60;;;;;;;;;;5090363;28;20023;-69
2021/12/05 11:51:44;;;;;;;16.00;6.88;;;;;;;;;;5090285;28;20031;-70
2021/12/05 11:54:15;;;;;;;15.88;6.40;;;;;;;;;;5090141;28;20028;-69
2021/12/05 11:56:44;;;;;;;19.77;7.13;;;;;;;;;;5091455;28;20024;-69
2021/12/05 11:59:10;;;;;;;13.70;6.03;;;;;;;;;;5090139;28;20384;-68
2021/12/05 12:01:59;;;;;;;14.35;6.20;;;;;;;;;;5091233;28;20053;-68
2021/12/05 12:04:37;;;;;;;16.13;7.57;;;;;;;;;;5085981;28;20089;-68
2021/12/05 12:07:09;;;;;;;17.30;6.22;;;;;;;;;;5075927;28;20031;-68
2021/12/05 12:09:35;;;;;;;13.88;6.15;;;;;;;;;;5070917;28;20162;-67
2021/12/05 12:12:01;;;;;;;13.98;6.05;;;;;;;;;;5069439;28;20048;-68
2021/12/05 12:14:28;;;;;;;14.07;6.63;;;;;;;;;;4721504;28;10000118;-67
2021/12/05 12:16:54;;;;;;;20.77;6.82;;;;;;;;;;5086801;28;20016;-67
2021/12/05 12:19:22;;;;;;;14.85;6.35;;;;;;;;;;5086985;28;20035;-67
2021/12/05 12:21:51;;;;;;;14.88;6.40;;;;;;;;;;5086621;28;20046;-67
2021/12/05 12:24:17;;;;;;;15.38;6.85;;;;;;;;;;5087488;28;20507;-67
2021/12/05 12:26:45;;;;;;;16.58;7.00;;;;;;;;;;5087591;28;20076;-67
2021/12/05 12:29:12;;;;;;;14.65;6.57;;;;;;;;;;5088136;28;20024;-68
2021/12/05 12:31:41;;;;;;;13.77;6.25;;;;;;;;;;5087037;28;20119;-66
2021/12/05 12:34:13;;;;;;;16.48;6.50;;;;;;;;;;5088672;28;20028;-66
2021/12/05 12:36:39;;;;;;;15.40;6.78;;;;;;;;;;5088719;28;20628;-68
2021/12/05 12:39:25;;;;;;;15.02;6.35;;;;;;;;;;5090405;28;20020;-66
2021/12/05 12:42:01;;;;;;;14.88;6.20;;;;;;;;;;5089701;28;20024;-68
2021/12/05 12:44:28;;;;;;;15.48;6.90;;;;;;;;;;5089999;28;20028;-67
2021/12/05 12:46:58;;;;;;;15.50;6.70;;;;;;;;;;5089586;28;20047;-66
2021/12/05 12:49:38;;;;;;;15.40;6.80;;;;;;;;;;5089710;28;20020;-66
2021/12/05 12:52:08;;;;;;;16.30;7.03;;;;;;;;;;5090768;28;20107;-68
2021/12/05 12:54:42;;;;;;;16.58;7.07;;;;;;;;;;5089660;28;20449;-66
2021/12/05 12:57:16;;;;;;;15.23;6.40;;;;;;;;;;5089560;28;20024;-67
2021/12/05 12:59:58;;;;;;;15.25;6.47;;;;;;;;;;5091158;28;20073;-68
2021/12/05 13:11:12;;;;;;;17.25;6.28;;;;;;;;;;5064704;28;20039;-68
2021/12/05 13:13:39;;;;;;;14.23;7.03;;;;;;;;;;5081880;28;20107;-67
2021/12/05 13:16:17;;;;;;;15.38;6.53;;;;;;;;;;5080488;28;20591;-67
2021/12/05 13:18:44;;;;;;;15.05;6.20;;;;;;;;;;5088112;28;20028;-68
2021/12/05 13:21:11;;;;;;;17.65;6.68;;;;;;;;;;5085363;28;20028;-66
2021/12/05 13:23:41;;;;;;;15.03;7.00;;;;;;;;;;5081265;28;20073;-66
2021/12/05 13:26:13;;;;;;;15.00;6.72;;;;;;;;;;5083172;28;20024;-66
2021/12/05 13:28:50;;;;;;;15.23;6.78;;;;;;;;;;4737902;28;9999754;-67
2021/12/05 13:31:28;;;;;;;14.13;6.47;;;;;;;;;;5084706;28;20020;-67
2021/12/05 13:34:13;;;;;;;15.48;6.93;;;;;;;;;;5094606;28;20451;-66
2021/12/05 13:36:39;;;;;;;16.50;7.13;;;;;;;;;;5094123;28;20059;-67
2021/12/05 13:39:25;;;;;;;14.63;6.15;;;;;;;;;;5094132;28;20093;-67
2021/12/05 13:42:09;;;;;;;14.18;6.43;;;;;;;;;;5093902;28;20028;-67
2021/12/05 13:44:54;;;;;;;16.98;6.78;;;;;;;;;;5093024;28;20028;-66
2021/12/05 13:47:27;;;;;;;20.95;6.90;;;;;;;;;;5094056;28;20031;-67
2021/12/05 13:49:53;;;;;;;16.25;6.97;;;;;;;;;;5092877;28;20028;-69
2021/12/05 13:52:29;;;;;;;14.35;6.55;;;;;;;;;;5092683;28;20544;-66
2021/12/05 13:55:15;;;;;;;15.30;6.93;;;;;;;;;;5093997;28;20030;-67
2021/12/05 13:58:01;;;;;;;14.57;6.47;;;;;;;;;;5092651;28;20201;-67
2021/12/05 14:00:49;;;;;;;17.17;6.95;;;;;;;;;;4738647;28;10000439;-67
2021/12/05 14:03:35;;;;;;;15.80;7.13;;;;;;;;;;5089777;28;20028;-68
2021/12/05 14:06:01;;;;;;;16.80;7.50;;;;;;;;;;5084217;28;20396;-66
2021/12/05 14:08:27;;;;;;;15.60;6.78;;;;;;;;;;5071071;28;20028;-67
2021/12/05 14:10:53;;;;;;;18.73;7.63;;;;;;;;;;5069868;28;20020;-66
2021/12/05 14:13:21;;;;;;;19.00;7.78;;;;;;;;;;5069172;28;20504;-67
2021/12/05 14:15:55;;;;;;;16.02;7.15;;;;;;;;;;5069744;28;20020;-66
2021/12/05 14:18:22;;;;;;;16.83;7.47;;;;;;;;;;5084759;28;20384;-66
2021/12/05 14:20:49;;;;;;;15.13;7.38;;;;;;;;;;5089745;28;20057;-68
2021/12/05 14:23:20;;;;;;;14.75;6.80;;;;;;;;;;5090754;28;20032;-68
2021/12/05 14:25:47;;;;;;;14.98;6.72;;;;;;;;;;5087959;28;20031;-68
2021/12/05 14:28:13;;;;;;;16.40;7.55;;;;;;;;;;5072270;28;20083;-67
2021/12/05 14:30:40;;;;;;;15.05;6.80;;;;;;;;;;5070462;28;20150;-66
2021/12/05 14:33:06;;;;;;;15.30;6.93;;;;;;;;;;5068558;28;20119;-67
2021/12/05 14:35:34;;;;;;;16.13;7.03;;;;;;;;;;5070453;28;20028;-67
2021/12/05 14:38:04;;;;;;;17.13;7.28;;;;;;;;;;5080599;28;20067;-67
2021/12/05 14:40:31;;;;;;;17.20;7.03;;;;;;;;;;5077863;28;20048;-69
2021/12/05 14:42:59;;;;;;;15.85;6.85;;;;;;;;;;5085356;28;20078;-66
2021/12/05 14:45:29;;;;;;;15.03;6.73;;;;;;;;;;5068765;28;20598;-67
2021/12/05 14:47:57;;;;;;;16.60;7.20;;;;;;;;;;5068945;28;20491;-67
2021/12/05 14:50:24;;;;;;;17.20;8.20;;;;;;;;;;5070086;28;20024;-68
2021/12/05 14:52:52;;;;;;;16.63;9.43;;;;;;;;;;5068605;28;20057;-66
2021/12/05 14:55:19;;;;;;;20.93;8.70;;;;;;;;;;5069849;28;20435;-67
2021/12/05 14:57:46;;;;;;;16.40;7.93;;;;;;;;;;5069764;28;20028;-68
2021/12/05 15:00:12;;;;;;;18.17;7.78;;;;;;;;;;5069897;28;20025;-68
2021/12/05 15:02:39;;;;;;;19.52;8.45;;;;;;;;;;5069647;28;20746;-67
2021/12/05 15:05:08;;;;;;;17.48;8.65;;;;;;;;;;5068540;28;20036;-68
2021/12/05 15:07:34;;;;;;;17.63;7.05;;;;;;;;;;5086323;28;20077;-67
2021/12/05 15:10:00;;;;;;;18.00;7.80;;;;;;;;;;5090824;28;20099;-67
2021/12/05 15:12:29;;;;;;;18.08;8.13;;;;;;;;;;5088393;28;20020;-68
2021/12/05 15:15:00;;;;;;;18.08;7.78;;;;;;;;;;5090046;28;20020;-68
2021/12/05 15:17:28;;;;;;;18.90;7.68;;;;;;;;;;5089613;28;20531;-68
2021/12/05 15:19:56;;;;;;;18.00;7.82;;;;;;;;;;5089893;28;20028;-68
2021/12/05 15:22:23;;;;;;;15.55;6.90;;;;;;;;;;5089546;28;20031;-68
2021/12/05 15:24:59;;;;;;;19.13;7.90;;;;;;;;;;5089226;28;20040;-68
2021/12/05 15:27:27;;;;;;;17.33;7.88;;;;;;;;;;5079386;28;20032;-67
2021/12/05 15:29:55;;;;;;;17.27;7.28;;;;;;;;;;5075816;28;20514;-66
2021/12/05 15:32:23;;;;;;;19.15;7.70;;;;;;;;;;5069038;28;20151;-67
2021/12/05 15:34:50;;;;;;;17.83;7.27;;;;;;;;;;5078105;28;20027;-66
2021/12/05 15:37:16;;;;;;;18.52;6.90;;;;;;;;;;5068614;28;20278;-66
2021/12/05 15:39:43;;;;;;;17.13;7.45;;;;;;;;;;5067829;28;20517;-67
2021/12/05 15:42:17;;;;;;;16.45;7.40;;;;;;;;;;5068289;28;20515;-67
2021/12/05 15:44:44;;;;;;;19.23;7.70;;;;;;;;;;5068208;28;20036;-67
2021/12/05 15:47:12;;;;;;;18.45;9.10;;;;;;;;;;5067301;28;20463;-66
2021/12/05 15:49:57;;;;;;;16.98;7.38;;;;;;;;;;5069193;28;20024;-66
2021/12/05 15:52:25;;;;;;;18.50;7.30;;;;;;;;;;5068299;28;20424;-67
2021/12/05 15:54:52;;;;;;;16.70;7.55;;;;;;;;;;5069033;28;20032;-66
2021/12/05 15:57:27;;;;;;;17.83;7.95;;;;;;;;;;5068876;28;20078;-66
2021/12/05 15:59:54;;;;;;;18.88;7.95;;;;;;;;;;5068610;28;20024;-66
2021/12/05 16:02:20;;;;;;;18.38;7.65;;;;;;;;;;5068774;28;20033;-66
2021/12/05 16:04:48;;;;;;;18.92;8.10;;;;;;;;;;5068808;28;20302;-66
2021/12/05 16:07:14;;;;;;;16.83;7.82;;;;;;;;;;5079924;28;20360;-65
2021/12/05 16:09:41;;;;;;;18.70;8.60;;;;;;;;;;5087648;28;20572;-67
2021/12/05 16:12:07;;;;;;;16.02;7.00;;;;;;;;;;5089160;28;20030;-65
2021/12/05 16:14:36;;;;;;;17.20;7.97;;;;;;;;;;5089437;28;20032;-73
2021/12/05 16:17:03;;;;;;;;;;;;;;;;;;5089396;28;20048;-67
2021/12/05 16:19:32;;;;;;;16.95;7.93;;;;;;;;;;5088548;28;19908;-67
2021/12/05 16:21:58;;;;;;;16.77;7.10;;;;;;;;;;5087409;28;20038;-67
2021/12/05 16:24:26;;;;;;;19.95;8.55;;;;;;;;;;5088150;28;20032;-64
2021/12/05 16:26:52;;;;;;;19.75;7.00;;;;;;;;;;5088400;28;20487;-66
2021/12/05 16:29:19;;;;;;;17.63;7.40;;;;;;;;;;5088405;28;20380;-69
2021/12/05 16:31:57;;;;;;;15.95;6.63;;;;;;;;;;5087989;28;20391;-65
2021/12/05 16:34:27;;;;;;;16.45;7.40;;;;;;;;;;5076950;28;20024;-66
2021/12/05 16:36:56;;;;;;;17.42;7.72;;;;;;;;;;5068185;28;20132;-66
2021/12/05 16:39:28;;;;;;;17.90;8.02;;;;;;;;;;5068367;28;20127;-66
2021/12/05 16:41:56;;;;;;;18.92;7.97;;;;;;;;;;5068475;28;20511;-67
2021/12/05 16:44:26;;;;;;;17.40;7.80;;;;;;;;;;5068094;28;20039;-66
2021/12/05 16:46:55;;;;;;;19.50;8.68;;;;;;;;;;5068572;28;20266;-66
2021/12/05 16:49:27;;;;;;;19.33;8.10;;;;;;;;;;5068591;28;20027;-67
2021/12/05 16:51:57;;;;;;;20.90;8.55;;;;;;;;;;5068633;28;20028;-65
2021/12/05 16:54:30;;;;;;;21.13;8.25;;;;;;;;;;5072732;28;20055;-66
2021/12/05 16:56:59;;;;;;;17.17;8.20;;;;;;;;;;5081551;28;20084;-66
2021/12/05 16:59:30;;;;;;;19.90;8.93;;;;;;;;;;5085612;28;20028;-65
2021/12/05 17:02:08;;;;;;;20.50;9.13;;;;;;;;;;5082333;28;20020;-66
2021/12/05 17:04:43;;;;;;;19.45;8.63;;;;;;;;;;5082590;28;20033;-67
2021/12/05 17:07:13;;;;;;;18.85;8.82;;;;;;;;;;5085387;28;20036;-66
2021/12/05 17:09:40;;;;;;;17.88;9.27;;;;;;;;;;5083532;28;20020;-68
2021/12/05 17:12:06;;;;;;;21.90;9.70;;;;;;;;;;5084681;28;20016;-68
2021/12/05 17:14:32;;;;;;;19.92;8.57;;;;;;;;;;5081385;28;20595;-67
2021/12/05 17:16:58;;;;;;;19.67;8.55;;;;;;;;;;5085433;28;20027;-66
2021/12/05 17:19:27;;;;;;;18.05;9.15;;;;;;;;;;5055037;22;20055;-70
2021/12/05 17:21:53;;;;;;;28.15;9.90;;;;;;;;;;5026766;28;20049;-69
2021/12/05 17:24:21;;;;;;;18.95;9.57;;;;;;;;;;5032327;28;20124;-70
2021/12/05 17:26:46;;;;;;;21.17;9.00;;;;;;;;;;5032717;28;20021;-70
2021/12/05 17:29:19;;;;;;;20.10;9.40;;;;;;;;;;5034078;28;20532;-70
2021/12/05 17:31:50;;;;;;;20.00;9.32;;;;;;;;;;5033365;28;20022;-70
2021/12/05 17:34:22;;;;;;;20.25;9.07;;;;;;;;;;5033258;28;20396;-70
2021/12/05 17:37:01;;;;;;;21.08;9.60;;;;;;;;;;5031299;28;20037;-64
2021/12/05 17:39:31;;;;;;;22.70;10.27;;;;;;;;;;5030651;28;20037;-66
2021/12/05 17:42:05;;;;;;;21.00;10.38;;;;;;;;;;5031096;28;20091;-65
2021/12/05 17:44:31;;;;;;;21.58;9.55;;;;;;;;;;5020348;28;20021;-66
2021/12/05 17:46:59;;;;;;;18.95;9.50;;;;;;;;;;5023425;28;20014;-67
2021/12/05 17:49:27;;;;;;;18.43;9.53;;;;;;;;;;5023591;28;20072;-65
2021/12/05 17:51:54;;;;;;;18.35;9.40;;;;;;;;;;5029575;28;20033;-67
2021/12/05 17:54:35;;;;;;;18.73;9.85;;;;;;;;;;5021087;28;20029;-66
2021/12/05 17:57:13;;;;;;;19.25;9.63;;;;;;;;;;5018828;28;20029;-65
2021/12/05 17:59:56;;;;;;;19.37;8.67;;;;;;;;;;5030230;28;20025;-66
2021/12/05 18:05:01;;;;;;;21.73;9.38;;;;;;;;;;5031483;28;20030;-66
2021/12/05 18:07:27;;;;;;;19.95;9.13;;;;;;;;;;5024953;28;20029;-65
2021/12/05 18:09:54;;;;;;;18.63;9.18;;;;;;;;;;5029484;28;20029;-64
2021/12/05 18:12:22;;;;;;;18.85;9.23;;;;;;;;;;5028542;28;20053;-67
2021/12/05 18:14:48;;;;;;;;;;;;;;;;;;5012492;28;20391;-65
2021/12/05 18:17:14;;;;;;;20.65;9.57;;;;;;;;;;5019924;28;19905;-65
2021/12/05 18:19:41;;;;;;;21.00;9.73;;;;;;;;;;5021938;28;20079;-64
2021/12/05 18:22:07;;;;;;;22.38;9.55;;;;;;;;;;5013207;28;20022;-64
2021/12/05 18:24:34;;;;;;;18.38;9.40;;;;;;;;;;4676539;28;9999864;-65
2021/12/05 18:27:00;;;;;;;22.80;10.05;;;;;;;;;;5029599;28;20080;-65
2021/12/05 18:29:26;;;;;;;19.90;9.73;;;;;;;;;;5029790;28;20053;-64
2021/12/05 18:31:54;;;;;;;25.13;12.35;;;;;;;;;;5029945;28;20539;-64
2021/12/05 18:34:24;;;;;;;23.50;10.73;;;;;;;;;;5030988;28;20366;-65
2021/12/05 18:36:52;;;;;;;23.67;11.73;;;;;;;;;;5031035;28;20473;-65
2021/12/05 18:39:22;;;;;;;18.45;9.65;;;;;;;;;;5030867;28;20030;-64
2021/12/05 18:41:49;;;;;;;18.55;10.38;;;;;;;;;;5029374;28;20041;-63
2021/12/05 18:44:18;;;;;;;20.45;10.43;;;;;;;;;;5026913;28;20025;-65
2021/12/05 18:46:45;;;;;;;18.80;9.75;;;;;;;;;;5009515;28;20030;-66
2021/12/05 18:49:11;;;;;;;21.00;10.50;;;;;;;;;;5010983;28;20022;-65
2021/12/05 18:51:38;;;;;;;21.00;10.82;;;;;;;;;;5010779;28;20097;-66
2021/12/05 18:54:05;;;;;;;20.55;9.75;;;;;;;;;;5010939;28;20022;-66
2021/12/05 18:56:31;;;;;;;22.38;10.27;;;;;;;;;;5009549;28;20464;-66
2021/12/05 18:58:58;;;;;;;22.67;10.85;;;;;;;;;;5016896;28;20417;-68
2021/12/05 19:06:48;;;;;;;22.27;10.20;;;;;;;;;;5030620;28;20030;-65
2021/12/05 19:09:29;;;;;;;19.77;9.43;;;;;;;;;;5030751;28;20014;-65
2021/12/05 19:11:58;;;;;;;19.95;10.02;;;;;;;;;;5028492;28;20524;-65
2021/12/05 19:14:29;;;;;;;22.60;11.52;;;;;;;;;;5023038;28;20107;-66
2021/12/05 19:17:00;;;;;;;19.80;10.40;;;;;;;;;;5030122;28;20033;-66
2021/12/05 19:19:27;;;;;;;21.35;10.32;;;;;;;;;;5028653;28;20099;-67
2021/12/05 19:21:53;;;;;;;21.33;10.30;;;;;;;;;;5029566;28;20109;-67
2021/12/05 19:24:20;;;;;;;20.98;10.35;;;;;;;;;;5028798;28;20083;-65
2021/12/05 19:26:47;;;;;;;22.48;11.45;;;;;;;;;;5030554;28;20021;-65
2021/12/05 19:29:15;;;;;;;22.80;11.48;;;;;;;;;;5030129;28;20034;-64
2021/12/05 19:31:41;;;;;;;22.02;10.88;;;;;;;;;;5029610;28;20060;-65
2021/12/05 19:34:07;;;;;;;23.60;10.65;;;;;;;;;;5028734;28;20037;-65
2021/12/05 19:36:33;;;;;;;25.13;11.90;;;;;;;;;;5030169;28;20069;-65
2021/12/05 19:39:00;;;;;;;25.55;11.45;;;;;;;;;;5028586;28;20124;-65
2021/12/05 19:41:27;;;;;;;23.45;11.88;;;;;;;;;;5029078;28;20068;-65
2021/12/05 19:43:53;;;;;;;21.42;11.18;;;;;;;;;;5028283;28;20126;-66
2021/12/05 19:46:19;;;;;;;24.40;10.98;;;;;;;;;;5030098;28;20040;-67
2021/12/05 19:48:46;;;;;;;20.98;10.63;;;;;;;;;;5032790;28;20032;-65
2021/12/05 19:51:13;;;;;;;22.38;10.90;;;;;;;;;;5032358;28;20105;-66
2021/12/05 19:53:40;;;;;;;22.38;11.25;;;;;;;;;;4679695;28;10000259;-65
2021/12/05 19:56:07;;;;;;;21.15;11.27;;;;;;;;;;5026768;28;20036;-65
2021/12/05 19:58:34;;;;;;;21.42;10.48;;;;;;;;;;5029339;28;20549;-66
2021/12/05 20:01:00;;;;;;;20.10;10.40;;;;;;;;;;5029280;28;20029;-65
2021/12/05 20:03:26;;;;;;;20.42;11.25;;;;;;;;;;5026526;28;20524;-65
2021/12/05 20:05:52;;;;;;;20.73;10.60;;;;;;;;;;5028462;28;20025;-66
2021/12/05 20:08:18;;;;;;;19.50;10.82;;;;;;;;;;5028517;28;20124;-66
2021/12/05 20:10:45;;;;;;;20.55;11.07;;;;;;;;;;5028473;28;20025;-66
2021/12/05 20:13:12;;;;;;;23.98;11.70;;;;;;;;;;5028397;28;20033;-66
2021/12/05 20:15:38;;;;;;;20.55;10.38;;;;;;;;;;5029804;28;20021;-64
2021/12/05 20:18:07;;;;;;;20.17;10.63;;;;;;;;;;5027688;28;20068;-68